Catron, Missouri
Current Conditions -  °F | °C
As of 6:53 PM on Wednesday 22 Oct 2014 (Local Time) from KPOF Reporting Station
Clear Clear  
Wind Chill: 54°   Ceiling: Unl
Heat Index: 54°   Visibility: 8mi
Dew Point: 44°   Wind: 0mph
Humidity: 69%   Direction: NA
Pressure: 30.19"   Gusts: NA
Location:  36.61°N, 89.7°W
Report Text: KPOF 222353Z AUTO 00000KT 8SM CLR 12/07 A3019 RMK AO2 SLP225 T01220067 10189 20117 56004
Loading
Personal Weather Stations






























Interactive Weather Map
Tropical Storm Tracking
New forecast layout! Learn more

10-Day Weather Forecast

Advertisements
Track Severe Weather on mobile